Time;durP1;ratioP1;P1;durP2;ratioP2;P2;SDS_P1;SDS_P2;PMS_P1;PMS_P2;Temp;Humidity;BMP_temperature;BMP_pressure;BME280_temperature;BME280_humidity;BME280_pressure;Samples;Min_cycle;Max_cycle;Signal;HPM_P1;HPM_P2
2022/01/27 00:04:30;;;;;;;24.00;13.67;;;3.60;99.90;;;;;;5120452;27;20235;-74
2022/01/27 00:07:19;;;;;;;24.40;13.70;;;3.50;99.90;;;;;;5100281;28;20253;-75
2022/01/27 00:10:17;;;;;;;22.07;13.90;;;3.50;99.90;;;;;;5120645;27;20220;-75
2022/01/27 00:13:11;;;;;;;23.80;14.00;;;3.50;99.90;;;;;;5104999;27;20256;-76
2022/01/27 00:16:12;;;;;;;25.47;14.00;;;3.50;99.90;;;;;;5102743;27;20248;-74
2022/01/27 00:19:02;;;;;;;23.87;14.03;;;3.40;99.90;;;;;;5103706;27;21440;-76
2022/01/27 00:21:51;;;;;;;25.07;14.37;;;3.40;99.90;;;;;;5122630;27;20217;-74
2022/01/27 00:24:40;;;;;;;23.03;14.23;;;3.20;99.90;;;;;;5121362;27;20721;-75
2022/01/27 00:27:29;;;;;;;23.63;13.50;;;3.10;99.90;;;;;;5117660;27;20234;-76
2022/01/27 00:30:22;;;;;;;25.87;13.73;;;3.00;99.90;;;;;;5115985;27;20223;-77
2022/01/27 00:33:10;;;;;;;22.40;13.07;;;3.00;99.90;;;;;;5114936;27;20214;-75
2022/01/27 00:36:04;;;;;;;23.70;14.03;;;2.90;99.90;;;;;;5105588;27;20303;-76
2022/01/27 00:38:53;;;;;;;27.13;14.83;;;2.80;99.90;;;;;;5107082;27;20796;-76
2022/01/27 00:41:41;;;;;;;27.00;13.60;;;2.90;99.90;;;;;;5127370;27;20217;-76
2022/01/27 00:44:30;;;;;;;26.60;14.63;;;2.90;99.90;;;;;;5107361;27;20222;-75
2022/01/27 00:47:19;;;;;;;27.10;15.20;;;2.90;99.90;;;;;;5109275;27;20305;-76
2022/01/27 00:50:08;;;;;;;27.37;14.47;;;3.00;99.90;;;;;;5118927;27;20270;-78
2022/01/27 00:53:01;;;;;;;28.27;15.00;;;3.10;99.90;;;;;;5122647;27;20207;-77
2022/01/27 00:55:50;;;;;;;26.70;14.67;;;3.20;99.90;;;;;;5122243;27;20221;-75
2022/01/27 00:58:49;;;;;;;27.93;14.63;;;3.20;99.90;;;;;;5108756;27;20226;-77
2022/01/27 01:01:42;;;;;;;25.57;14.80;;;3.20;99.90;;;;;;5123718;27;20225;-77
2022/01/27 01:04:35;;;;;;;25.80;15.27;;;3.20;99.90;;;;;;5094521;27;20222;-76
2022/01/27 01:07:24;;;;;;;22.17;13.27;;;3.20;99.90;;;;;;5119431;27;20227;-78
2022/01/27 01:14:21;;;;;;;24.83;13.83;;;3.10;99.90;;;;;;5063587;28;20218;-78
2022/01/27 01:17:13;;;;;;;27.20;13.50;;;3.10;99.90;;;;;;5114864;27;20229;-77
2022/01/27 01:29:56;;;;;;;24.27;13.47;;;3.20;99.90;;;;;;5105962;27;20224;-76
2022/01/27 01:32:49;;;;;;;27.07;13.83;;;3.20;99.90;;;;;;5101623;27;20225;-76
2022/01/27 01:35:47;;;;;;;26.40;13.67;;;3.20;99.90;;;;;;5105419;27;20233;-76
2022/01/27 01:38:36;;;;;;;23.37;13.13;;;3.10;99.90;;;;;;5121712;27;20207;-76
2022/01/27 01:41:25;;;;;;;27.03;14.97;;;3.10;99.90;;;;;;5109530;27;20221;-76
2022/01/27 01:44:15;;;;;;;29.50;14.67;;;3.10;99.90;;;;;;5096030;27;20724;-75
2022/01/27 01:47:04;;;;;;;30.83;14.37;;;3.10;99.90;;;;;;5084047;28;20455;-76
2022/01/27 01:49:53;;;;;;;29.27;15.10;;;3.20;99.90;;;;;;5071198;28;20223;-75
2022/01/27 01:52:44;;;;;;;35.63;15.93;;;3.20;99.90;;;;;;5085618;28;20918;-74
2022/01/27 01:55:34;;;;;;;33.90;15.50;;;3.10;99.90;;;;;;5097699;28;20230;-75
2022/01/27 01:58:22;;;;;;;34.83;16.43;;;3.10;99.90;;;;;;5100655;27;20214;-75
2022/01/27 02:01:13;;;;;;;31.17;15.43;;;3.10;99.90;;;;;;5100956;28;20219;-77
2022/01/27 02:04:06;;;;;;;36.20;16.23;;;3.20;99.90;;;;;;5100173;27;20706;-76
2022/01/27 02:06:58;;;;;;;30.47;15.47;;;3.20;99.90;;;;;;5101010;27;20215;-76
2022/01/27 02:10:04;;;;;;;39.17;17.57;;;3.10;99.90;;;;;;5096217;27;20260;-75
2022/01/27 02:19:07;;;;;;;41.60;17.60;;;3.10;99.90;;;;;;5095743;27;20230;-76
2022/01/27 02:21:59;;;;;;;45.80;18.17;;;3.20;99.90;;;;;;5098256;27;20235;-74
2022/01/27 02:24:48;;;;;;;41.10;19.03;;;3.30;99.90;;;;;;5105123;27;20237;-75
2022/01/27 02:27:37;;;;;;;48.63;18.97;;;3.30;99.90;;;;;;5100843;27;20226;-74
2022/01/27 02:30:30;;;;;;;46.63;19.67;;;3.20;99.90;;;;;;5109605;27;20218;-75
2022/01/27 02:33:30;;;;;;;50.40;20.00;;;3.20;99.90;;;;;;5101891;27;20330;-76
2022/01/27 02:36:18;;;;;;;43.07;17.07;;;3.20;99.90;;;;;;5097383;27;20309;-74
2022/01/27 02:39:11;;;;;;;49.70;20.63;;;3.20;99.90;;;;;;5096750;27;20582;-75
2022/01/27 02:42:06;;;;;;;45.87;19.37;;;3.10;99.90;;;;;;5095420;27;20226;-76
2022/01/27 02:45:04;;;;;;;40.47;17.80;;;3.20;99.90;;;;;;5099238;27;20754;-75
2022/01/27 02:47:52;;;;;;;45.37;19.03;;;3.20;99.90;;;;;;5092717;28;20271;-75
2022/01/27 02:50:41;;;;;;;54.77;18.67;;;3.10;99.90;;;;;;5088291;28;20591;-74
2022/01/27 02:53:29;;;;;;;48.10;18.30;;;3.20;99.90;;;;;;5102434;27;20228;-74
2022/01/27 02:56:20;;;;;;;52.20;19.77;;;3.20;99.90;;;;;;5096300;28;20230;-75
2022/01/27 02:59:12;;;;;;;47.63;19.10;;;3.20;99.90;;;;;;5096786;28;20228;-76
2022/01/27 03:02:00;;;;;;;54.90;19.63;;;3.10;99.90;;;;;;5085161;28;20312;-76
2022/01/27 03:04:49;;;;;;;47.80;19.50;;;3.20;99.90;;;;;;5100635;27;20226;-77
2022/01/27 03:07:38;;;;;;;55.63;21.20;;;3.00;99.90;;;;;;5086714;28;20235;-77
2022/01/27 03:10:30;;;;;;;54.50;19.80;;;3.10;99.90;;;;;;5101813;27;20231;-81
2022/01/27 03:13:20;;;;;;;51.57;19.63;;;3.10;99.90;;;;;;5081750;28;20698;-76
2022/01/27 03:16:09;;;;;;;49.37;20.33;;;3.20;99.90;;;;;;5103083;28;20885;-80
2022/01/27 03:18:57;;;;;;;49.97;20.53;;;3.30;99.90;;;;;;5097031;28;20223;-76
2022/01/27 03:21:46;;;;;;;50.00;20.30;;;3.30;99.90;;;;;;5099215;28;20215;-75
2022/01/27 03:24:36;;;;;;;53.73;21.07;;;3.10;99.90;;;;;;5100355;28;20992;-74
2022/01/27 03:27:26;;;;;;;54.80;21.37;;;3.10;99.90;;;;;;5095631;28;20223;-72
2022/01/27 03:30:21;;;;;;;60.30;21.00;;;3.10;99.90;;;;;;5100169;28;20226;-75
2022/01/27 03:33:10;;;;;;;58.17;21.57;;;3.20;99.90;;;;;;5094842;28;20219;-77
2022/01/27 03:35:59;;;;;;;57.03;21.73;;;3.20;99.90;;;;;;5081239;28;20227;-77
2022/01/27 03:38:48;;;;;;;48.50;18.40;;;3.30;99.90;;;;;;5065449;28;20223;-76
2022/01/27 03:41:39;;;;;;;55.80;20.87;;;3.10;99.90;;;;;;5087719;28;20215;-77
2022/01/27 03:44:29;;;;;;;55.20;20.60;;;3.10;99.90;;;;;;5090350;28;20322;-78
2022/01/27 03:47:20;;;;;;;58.07;21.03;;;3.20;99.90;;;;;;5101889;28;20239;-75
2022/01/27 03:50:09;;;;;;;50.03;18.57;;;3.40;99.90;;;;;;5096609;28;20211;-77
2022/01/27 03:52:57;;;;;;;50.27;19.17;;;3.20;99.90;;;;;;5096767;28;20216;-77
2022/01/27 03:55:47;;;;;;;55.67;20.03;;;3.20;99.90;;;;;;5080021;28;20223;-77
2022/01/27 03:58:36;;;;;;;53.67;20.00;;;3.20;99.90;;;;;;5100161;28;20213;-75
2022/01/27 04:01:25;;;;;;;62.10;21.33;;;3.20;99.90;;;;;;5098913;28;20228;-76
2022/01/27 04:04:15;;;;;;;53.20;19.77;;;3.20;99.90;;;;;;5091423;28;20264;-76
2022/01/27 04:07:04;;;;;;;54.40;20.57;;;3.20;99.90;;;;;;5100900;28;20222;-77
2022/01/27 04:09:53;;;;;;;60.87;19.97;;;3.20;99.90;;;;;;5074433;28;20215;-77
2022/01/27 04:12:41;;;;;;;55.43;20.47;;;3.20;99.90;;;;;;5101812;28;20956;-75
2022/01/27 04:15:30;;;;;;;50.60;18.53;;;3.30;99.90;;;;;;5099999;28;20215;-75
2022/01/27 04:18:19;;;;;;;55.57;19.63;;;3.20;99.90;;;;;;5098425;28;20215;-76
2022/01/27 04:21:09;;;;;;;55.93;19.37;;;3.20;99.90;;;;;;5099770;27;20306;-75
2022/01/27 04:23:58;;;;;;;52.33;20.03;;;3.20;99.90;;;;;;5095784;28;20213;-74
2022/01/27 04:26:51;;;;;;;49.67;18.13;;;3.30;99.90;;;;;;5098391;27;20649;-76
2022/01/27 04:29:40;;;;;;;54.63;18.77;;;3.30;99.90;;;;;;5099028;28;20243;-76
2022/01/27 04:32:35;;;;;;;44.50;18.30;;;3.30;99.90;;;;;;5094233;27;20230;-76
2022/01/27 04:35:27;;;;;;;49.93;18.47;;;3.30;99.90;;;;;;5116601;27;20781;-75
2022/01/27 04:38:22;;;;;;;44.83;17.70;;;3.40;99.90;;;;;;5095622;28;20237;-75
2022/01/27 04:41:16;;;;;;;48.33;17.33;;;3.30;99.90;;;;;;5099128;27;20242;-75
2022/01/27 04:44:17;;;;;;;41.60;16.00;;;3.30;99.90;;;;;;5082196;28;20219;-77
2022/01/27 04:47:10;;;;;;;45.50;18.47;;;3.30;99.90;;;;;;5097568;28;20240;-77
2022/01/27 04:49:59;;;;;;;47.40;18.03;;;3.20;99.90;;;;;;5102679;28;20247;-76
2022/01/27 04:52:50;;;;;;;43.37;16.93;;;3.30;99.90;;;;;;5099336;28;20221;-77
2022/01/27 04:55:41;;;;;;;47.93;17.33;;;3.30;99.90;;;;;;5099864;27;20230;-77
2022/01/27 04:58:32;;;;;;;49.17;17.40;;;3.30;99.90;;;;;;5086318;28;20227;-76
2022/01/27 05:01:29;;;;;;;45.60;17.33;;;3.20;99.90;;;;;;5085197;27;20591;-76
2022/01/27 05:04:21;;;;;;;45.63;17.13;;;3.40;99.90;;;;;;5098291;27;20313;-76
2022/01/27 05:07:10;;;;;;;45.90;16.70;;;3.30;99.90;;;;;;5100162;27;20711;-77
2022/01/27 05:10:08;;;;;;;46.00;16.93;;;3.40;99.90;;;;;;5088092;28;20761;-76
2022/01/27 05:13:06;;;;;;;42.03;16.37;;;3.40;99.90;;;;;;5099595;27;20952;-76
2022/01/27 05:15:54;;;;;;;45.83;17.03;;;3.40;99.90;;;;;;5084417;27;20568;-77
2022/01/27 05:18:48;;;;;;;38.67;17.00;;;3.50;99.90;;;;;;5096480;27;20651;-76
2022/01/27 05:21:37;;;;;;;46.93;17.27;;;3.50;99.90;;;;;;5102917;27;20235;-76
2022/01/27 05:24:26;;;;;;;44.93;17.57;;;3.50;99.90;;;;;;5098705;28;20216;-74
2022/01/27 05:27:14;;;;;;;50.23;18.20;;;3.40;99.90;;;;;;5097089;28;20222;-76
2022/01/27 05:30:05;;;;;;;46.40;17.80;;;3.50;99.90;;;;;;5087563;28;20679;-76
2022/01/27 05:32:53;;;;;;;48.70;18.07;;;3.50;99.90;;;;;;5100574;28;20227;-78
2022/01/27 05:35:45;;;;;;;47.67;17.23;;;3.50;99.90;;;;;;5102840;27;20227;-78
2022/01/27 05:38:35;;;;;;;49.07;19.50;;;3.40;99.90;;;;;;5099726;27;20223;-77
2022/01/27 05:41:24;;;;;;;46.70;17.83;;;3.50;99.90;;;;;;5081790;28;20223;-77
2022/01/27 05:44:13;;;;;;;47.37;18.13;;;3.40;99.90;;;;;;5080515;28;20371;-76
2022/01/27 05:47:03;;;;;;;48.37;18.70;;;3.50;99.90;;;;;;5099155;28;20246;-77
2022/01/27 05:49:56;;;;;;;41.77;16.73;;;3.40;99.90;;;;;;5082791;27;20299;-75
2022/01/27 05:52:44;;;;;;;47.67;18.93;;;3.50;99.90;;;;;;5078262;28;20746;-75
2022/01/27 05:55:34;;;;;;;43.73;17.77;;;3.40;99.90;;;;;;5071947;28;20220;-76
2022/01/27 05:58:22;;;;;;;41.93;18.20;;;3.30;99.90;;;;;;5067903;28;20222;-75
2022/01/27 06:01:11;;;;;;;49.60;19.03;;;3.50;99.90;;;;;;5088472;28;20588;-76
2022/01/27 06:04:02;;;;;;;48.03;19.30;;;3.50;99.90;;;;;;5075678;28;20224;-76
2022/01/27 06:06:53;;;;;;;45.27;19.20;;;3.50;99.90;;;;;;5079479;27;20219;-78
2022/01/27 06:09:41;;;;;;;49.87;20.37;;;3.50;99.90;;;;;;5095857;28;20598;-77
2022/01/27 06:12:30;;;;;;;53.80;20.27;;;3.40;99.90;;;;;;5098782;28;20850;-76
2022/01/27 06:15:19;;;;;;;48.70;19.03;;;3.50;99.90;;;;;;5098880;28;20219;-75
2022/01/27 06:18:08;;;;;;;57.40;21.20;;;3.50;99.90;;;;;;5075663;28;20224;-77
2022/01/27 06:21:01;;;;;;;53.63;20.67;;;3.50;99.90;;;;;;5067114;28;20228;-76
2022/01/27 06:23:49;;;;;;;52.87;20.87;;;3.60;99.90;;;;;;5066380;27;20213;-75
2022/01/27 06:26:38;;;;;;;47.50;20.40;;;3.60;99.90;;;;;;5065235;28;20229;-76
2022/01/27 06:29:27;;;;;;;52.27;20.87;;;3.50;99.90;;;;;;5078329;28;20310;-74
2022/01/27 06:32:15;;;;;;;55.90;20.47;;;3.50;99.90;;;;;;5094300;27;20579;-77
2022/01/27 06:35:05;;;;;;;54.37;20.97;;;3.40;99.90;;;;;;5080280;27;20256;-73
2022/01/27 06:37:55;;;;;;;51.47;20.20;;;3.40;99.90;;;;;;5094027;27;20229;-71
2022/01/27 06:40:43;;;;;;;58.57;20.67;;;3.50;99.90;;;;;;5099290;28;20223;-72
2022/01/27 06:43:32;;;;;;;49.13;19.33;;;3.60;99.90;;;;;;5081861;28;20232;-71
2022/01/27 06:46:21;;;;;;;46.73;21.03;;;3.60;99.90;;;;;;5085743;28;20579;-73
2022/01/27 06:49:16;;;;;;;52.20;20.47;;;3.60;99.90;;;;;;5101314;27;20699;-76
2022/01/27 06:52:05;;;;;;;50.70;20.03;;;3.40;99.90;;;;;;5085984;28;20794;-81
2022/01/27 06:54:56;;;;;;;51.87;20.40;;;3.50;99.90;;;;;;5090215;28;20694;-76
2022/01/27 06:57:46;;;;;;;46.63;21.17;;;3.50;99.90;;;;;;5083553;28;20240;-75
2022/01/27 07:00:35;;;;;;;46.67;19.57;;;3.60;99.90;;;;;;5086527;28;20376;-75
2022/01/27 07:03:24;;;;;;;48.73;21.23;;;3.60;99.90;;;;;;5101767;28;20211;-72
2022/01/27 07:06:13;;;;;;;48.63;21.60;;;3.50;99.90;;;;;;5107524;27;20233;-72
2022/01/27 07:09:02;;;;;;;45.67;20.57;;;3.60;99.90;;;;;;5091308;28;20531;-75
2022/01/27 07:11:52;;;;;;;53.43;21.87;;;3.60;99.90;;;;;;5088210;28;20322;-72
2022/01/27 07:14:44;;;;;;;47.13;21.47;;;3.60;99.90;;;;;;5086595;27;20211;-71
2022/01/27 07:17:33;;;;;;;46.93;21.20;;;3.50;99.90;;;;;;5100816;28;20211;-72
2022/01/27 07:20:21;;;;;;;57.80;23.73;;;3.60;99.90;;;;;;5094527;28;20718;-72
2022/01/27 07:23:10;;;;;;;55.63;23.33;;;3.60;99.90;;;;;;5080724;28;20223;-72
2022/01/27 07:25:59;;;;;;;52.93;24.03;;;3.60;99.90;;;;;;5083696;28;20759;-71
2022/01/27 07:28:49;;;;;;;53.83;23.10;;;3.50;99.90;;;;;;5103551;28;20480;-71
2022/01/27 07:31:41;;;;;;;54.23;23.13;;;3.50;99.90;;;;;;5100711;28;20229;-71
2022/01/27 07:34:30;;;;;;;50.67;23.50;;;3.60;99.90;;;;;;5071489;28;20321;-72
2022/01/27 07:37:19;;;;;;;52.60;23.60;;;3.60;99.90;;;;;;5096387;28;20232;-72
2022/01/27 07:40:09;;;;;;;59.50;24.30;;;3.60;99.90;;;;;;5097346;28;20734;-73
2022/01/27 07:42:58;;;;;;;57.10;24.97;;;3.70;99.90;;;;;;5081439;28;20215;-72
2022/01/27 07:45:48;;;;;;;55.03;22.83;;;3.50;99.90;;;;;;5080392;28;20234;-71
2022/01/27 07:48:37;;;;;;;56.60;24.70;;;3.50;99.90;;;;;;5088197;28;20226;-73
2022/01/27 07:51:26;;;;;;;57.80;23.07;;;3.60;99.90;;;;;;5096841;28;20792;-72
2022/01/27 07:54:15;;;;;;;54.33;24.50;;;3.70;99.90;;;;;;5100696;28;20295;-72
2022/01/27 07:57:04;;;;;;;50.87;24.00;;;3.60;99.90;;;;;;5100644;28;20222;-73
2022/01/27 07:59:52;;;;;;;54.40;24.83;;;3.70;99.90;;;;;;5089981;28;20299;-72
2022/01/27 08:02:43;;;;;;;56.20;25.13;;;3.80;99.90;;;;;;5090776;28;20232;-72
2022/01/27 08:05:32;;;;;;;62.30;25.73;;;3.70;99.90;;;;;;5098050;28;20216;-73
2022/01/27 08:08:21;;;;;;;59.60;25.40;;;3.80;99.90;;;;;;5085507;28;20227;-72
2022/01/27 08:11:10;;;;;;;59.57;26.43;;;3.70;99.90;;;;;;5103585;28;20266;-72
2022/01/27 08:13:58;;;;;;;57.50;26.37;;;3.70;99.90;;;;;;5105003;27;20219;-72
2022/01/27 08:16:47;;;;;;;62.93;28.00;;;3.70;99.90;;;;;;5102631;27;20828;-72
2022/01/27 08:19:37;;;;;;;58.13;25.37;;;3.70;99.90;;;;;;5086250;27;20211;-73
2022/01/27 08:22:26;;;;;;;58.53;24.30;;;3.80;99.90;;;;;;5083973;28;20234;-72
2022/01/27 08:25:16;;;;;;;57.77;27.23;;;3.70;99.90;;;;;;5085073;28;20687;-71
2022/01/27 08:28:19;;;;;;;63.33;26.77;;;3.60;99.90;;;;;;5088595;28;20273;-71
2022/01/27 08:31:08;;;;;;;57.43;26.33;;;3.60;99.90;;;;;;5100559;27;20223;-72
2022/01/27 08:34:02;;;;;;;56.97;25.93;;;3.60;99.90;;;;;;5084539;28;20238;-72
2022/01/27 08:36:52;;;;;;;52.10;25.63;;;3.60;99.90;;;;;;5083192;28;20283;-72
2022/01/27 08:39:42;;;;;;;58.80;24.47;;;3.60;99.90;;;;;;5100640;27;20706;-73
2022/01/27 08:42:30;;;;;;;46.93;22.17;;;3.70;99.90;;;;;;5102813;27;20601;-72
2022/01/27 08:45:21;;;;;;;45.77;23.33;;;3.90;99.90;;;;;;5086676;28;20716;-73
2022/01/27 08:48:13;;;;;;;53.87;24.60;;;3.80;99.90;;;;;;5101636;27;20231;-72
2022/01/27 08:51:02;;;;;;;53.90;25.07;;;3.80;99.90;;;;;;5086008;27;20232;-72
2022/01/27 08:54:14;;;;;;;52.53;24.37;;;3.80;99.90;;;;;;5100897;28;20232;-72
2022/01/27 08:57:02;;;;;;;48.63;22.33;;;3.90;99.90;;;;;;5083802;28;20223;-72
2022/01/27 08:59:53;;;;;;;52.90;24.87;;;3.90;99.90;;;;;;5082037;28;20680;-72
2022/01/27 09:02:42;;;;;;;52.43;25.90;;;4.00;99.90;;;;;;5080609;28;20239;-72
2022/01/27 09:05:31;;;;;;;47.10;22.93;;;4.00;99.90;;;;;;5086306;27;20252;-72
2022/01/27 09:08:20;;;;;;;48.57;24.43;;;4.00;99.90;;;;;;5100139;27;20255;-73
2022/01/27 09:11:10;;;;;;;47.67;23.50;;;3.90;99.90;;;;;;5101674;27;20237;-72
2022/01/27 09:13:59;;;;;;;45.37;23.40;;;4.00;99.90;;;;;;5097901;28;20217;-74
2022/01/27 09:16:48;;;;;;;42.87;22.03;;;4.00;99.90;;;;;;5084390;27;20216;-72
2022/01/27 09:19:37;;;;;;;48.03;23.07;;;4.10;99.90;;;;;;5102036;27;20232;-72
2022/01/27 09:22:39;;;;;;;44.70;21.43;;;4.10;99.90;;;;;;5085104;27;20251;-72
2022/01/27 09:25:33;;;;;;;47.30;23.63;;;4.10;99.90;;;;;;5083433;27;20306;-73
2022/01/27 09:28:23;;;;;;;43.23;22.10;;;4.00;99.90;;;;;;5097502;27;20223;-72
2022/01/27 09:31:12;;;;;;;55.97;26.57;;;4.10;99.90;;;;;;5097802;27;20222;-72
2022/01/27 09:34:01;;;;;;;50.43;23.43;;;4.00;99.90;;;;;;5082038;28;20219;-73
2022/01/27 09:36:50;;;;;;;51.87;23.50;;;4.10;99.90;;;;;;5096546;27;20220;-72
2022/01/27 09:39:40;;;;;;;46.13;22.57;;;4.00;99.90;;;;;;5095418;27;20228;-73
2022/01/27 09:42:32;;;;;;;47.77;22.90;;;4.10;99.90;;;;;;5081311;28;20704;-72
2022/01/27 09:45:23;;;;;;;45.33;22.90;;;4.00;99.90;;;;;;5099345;27;20220;-71
2022/01/27 09:48:15;;;;;;;45.40;21.57;;;4.00;99.90;;;;;;5096899;27;20235;-73
2022/01/27 09:51:23;;;;;;;42.00;21.60;;;4.00;99.90;;;;;;5082003;28;20249;-70
2022/01/27 09:54:13;;;;;;;45.93;20.87;;;4.00;99.90;;;;;;5098701;27;20243;-73
2022/01/27 09:57:02;;;;;;;43.53;21.50;;;4.00;99.90;;;;;;5084145;27;20383;-72
2022/01/27 09:59:51;;;;;;;40.77;22.23;;;4.00;99.90;;;;;;5098250;27;20219;-71
2022/01/27 10:03:01;;;;;;;43.43;20.90;;;4.10;99.90;;;;;;5098305;27;20320;-69
2022/01/27 10:05:49;;;;;;;41.33;21.00;;;4.10;99.90;;;;;;5070461;28;20222;-74
2022/01/27 10:08:40;;;;;;;37.83;20.10;;;4.10;99.90;;;;;;5099783;27;20238;-73
2022/01/27 10:11:34;;;;;;;40.37;20.17;;;4.10;99.90;;;;;;5073481;27;20224;-72
2022/01/27 10:14:26;;;;;;;40.13;21.50;;;4.00;99.90;;;;;;5095350;27;20901;-71
2022/01/27 10:17:15;;;;;;;39.43;20.17;;;4.20;99.90;;;;;;5097726;27;20255;-71
2022/01/27 10:20:15;;;;;;;43.47;21.03;;;4.10;99.90;;;;;;5101754;27;20219;-71
2022/01/27 10:23:20;;;;;;;34.60;19.27;;;4.10;99.90;;;;;;5095819;27;20233;-71
2022/01/27 10:26:16;;;;;;;44.10;21.57;;;4.20;99.90;;;;;;5100915;27;20221;-71
2022/01/27 10:29:09;;;;;;;39.43;20.27;;;4.20;99.90;;;;;;5100825;27;20243;-71
2022/01/27 10:32:03;;;;;;;39.33;20.57;;;4.20;99.90;;;;;;5098589;27;20735;-72
2022/01/27 10:34:56;;;;;;;37.87;19.77;;;4.20;99.90;;;;;;5101171;28;20221;-73
2022/01/27 10:37:58;;;;;;;40.00;20.57;;;4.30;99.90;;;;;;5088401;28;20350;-71
2022/01/27 10:40:48;;;;;;;36.70;19.57;;;4.30;99.90;;;;;;5085352;27;20220;-71
2022/01/27 10:43:37;;;;;;;45.97;24.53;;;4.30;99.90;;;;;;5103711;27;20589;-73
2022/01/27 10:46:28;;;;;;;34.60;18.53;;;4.30;99.90;;;;;;5097721;27;20213;-72
2022/01/27 10:49:25;;;;;;;34.97;18.60;;;4.20;99.90;;;;;;5082690;28;20233;-72
2022/01/27 10:52:21;;;;;;;30.87;17.80;;;4.30;99.90;;;;;;5080921;28;20229;-72
2022/01/27 10:55:15;;;;;;;33.77;18.10;;;4.30;99.90;;;;;;5100433;27;20220;-70
2022/01/27 10:58:27;;;;;;;34.23;18.33;;;4.40;99.90;;;;;;5083474;28;20884;-71
2022/01/27 11:01:23;;;;;;;43.33;18.93;;;4.40;99.90;;;;;;5082830;28;20751;-72
2022/01/27 11:04:13;;;;;;;35.03;18.87;;;4.50;99.90;;;;;;5088361;28;20226;-72
2022/01/27 11:07:03;;;;;;;33.17;16.73;;;4.60;99.90;;;;;;5085625;28;20740;-72
2022/01/27 11:09:54;;;;;;;28.30;17.03;;;4.50;99.90;;;;;;5088188;28;20282;-72
2022/01/27 11:12:45;;;;;;;31.60;17.43;;;4.40;99.90;;;;;;5096420;28;20234;-72
2022/01/27 11:15:34;;;;;;;27.93;15.87;;;4.60;99.90;;;;;;5086246;28;20725;-72
2022/01/27 11:18:25;;;;;;;47.97;18.00;;;4.50;99.90;;;;;;5101291;28;20215;-73
2022/01/27 11:21:27;;;;;;;37.00;17.40;;;4.40;99.90;;;;;;5099220;28;20229;-72
2022/01/27 11:24:24;;;;;;;50.33;17.57;;;4.40;99.90;;;;;;5086802;28;20217;-74
2022/01/27 11:27:14;;;;;;;30.63;16.00;;;4.40;99.90;;;;;;5102248;27;20362;-73
2022/01/27 11:30:12;;;;;;;52.40;15.83;;;4.40;99.90;;;;;;5097132;28;20256;-72
2022/01/27 11:33:04;;;;;;;38.87;16.60;;;4.40;99.90;;;;;;5097990;28;20274;-70
2022/01/27 11:36:15;;;;;;;28.60;15.47;;;4.30;99.90;;;;;;5079141;28;20218;-73
2022/01/27 11:39:10;;;;;;;29.27;14.30;;;4.40;99.90;;;;;;5095641;28;20230;-73
2022/01/27 11:42:04;;;;;;;25.77;13.90;;;4.50;99.90;;;;;;5099365;28;20341;-72
2022/01/27 11:44:52;;;;;;;23.87;13.97;;;4.60;99.90;;;;;;5085481;28;20273;-70
2022/01/27 11:48:08;;;;;;;22.70;13.93;;;4.50;99.90;;;;;;5100417;28;20222;-71
2022/01/27 11:51:12;;;;;;;20.20;12.57;;;4.60;99.90;;;;;;5081531;28;20222;-73
2022/01/27 11:54:01;;;;;;;25.57;13.17;;;4.50;99.90;;;;;;5080411;28;20227;-71
2022/01/27 11:56:52;;;;;;;23.27;13.67;;;4.50;99.90;;;;;;5081246;28;20229;-71
2022/01/27 11:59:42;;;;;;;21.13;13.23;;;4.60;99.90;;;;;;5100188;28;20719;-72
2022/01/27 12:02:30;;;;;;;20.70;12.93;;;4.60;99.90;;;;;;5103026;28;20222;-73
2022/01/27 12:05:21;;;;;;;19.60;11.53;;;4.60;99.90;;;;;;5085825;28;20221;-72
2022/01/27 12:08:25;;;;;;;22.93;12.97;;;4.60;99.90;;;;;;5101338;28;20220;-79
2022/01/27 12:11:49;;;;;;;19.03;11.33;;;4.70;99.90;;;;;;5098127;28;20227;-78
2022/01/27 12:15:10;;;;;;;20.43;11.60;;;4.70;99.90;;;;;;5078827;28;20253;-79
2022/01/27 12:18:36;;;;;;;17.43;10.67;;;4.60;99.90;;;;;;5091985;28;20221;-78
2022/01/27 12:21:35;;;;;;;21.67;11.77;;;4.70;99.90;;;;;;5084597;28;20848;-79
2022/01/27 12:24:27;;;;;;;21.63;11.33;;;4.60;99.90;;;;;;5084111;28;20257;-77
2022/01/27 12:27:18;;;;;;;19.07;9.90;;;4.60;99.90;;;;;;5102162;28;20230;-76
2022/01/27 12:30:27;;;;;;;16.50;8.97;;;4.60;99.90;;;;;;5085580;28;20313;-77
2022/01/27 12:33:19;;;;;;;15.33;9.30;;;4.80;99.90;;;;;;5081177;28;20254;-79
2022/01/27 12:36:09;;;;;;;13.87;8.20;;;4.60;99.90;;;;;;5092400;28;20753;-75
2022/01/27 12:38:59;;;;;;;17.77;8.10;;;4.60;99.90;;;;;;5087622;27;20430;-78
2022/01/27 12:41:48;;;;;;;14.87;8.00;;;4.50;99.90;;;;;;5096273;27;20226;-77
2022/01/27 12:44:41;;;;;;;15.27;8.23;;;4.40;99.90;;;;;;5101301;28;20231;-78
2022/01/27 12:47:31;;;;;;;14.23;8.50;;;4.30;99.90;;;;;;5124978;27;20346;-79
2022/01/27 12:50:23;;;;;;;14.43;8.00;;;4.50;99.90;;;;;;5100029;27;20218;-77
2022/01/27 12:53:14;;;;;;;15.60;8.90;;;4.30;99.90;;;;;;5105863;27;20212;-81
2022/01/27 12:56:10;;;;;;;14.23;8.37;;;4.40;99.90;;;;;;5083709;28;20234;-76
2022/01/27 12:58:59;;;;;;;12.47;8.50;;;4.40;99.90;;;;;;5101922;28;20232;-79
2022/01/27 13:01:56;;;;;;;15.67;8.40;;;4.20;99.90;;;;;;5089891;28;20315;-78
2022/01/27 13:04:46;;;;;;;15.47;8.40;;;4.30;99.90;;;;;;5086835;28;20232;-78
2022/01/27 13:07:36;;;;;;;14.73;8.50;;;4.00;99.90;;;;;;5090931;27;20217;-79
2022/01/27 13:10:25;;;;;;;15.20;9.20;;;4.00;99.90;;;;;;5101053;27;20238;-78
2022/01/27 13:13:20;;;;;;;13.37;8.43;;;4.00;99.90;;;;;;5090505;27;20387;-76
2022/01/27 13:16:15;;;;;;;14.93;7.83;;;3.90;99.90;;;;;;5085254;28;20235;-78
2022/01/27 13:19:09;;;;;;;14.80;8.70;;;3.90;99.90;;;;;;5088539;28;20231;-78
2022/01/27 13:22:01;;;;;;;18.77;9.30;;;3.90;99.90;;;;;;5091774;28;20863;-78
2022/01/27 13:25:02;;;;;;;16.57;9.50;;;4.00;99.90;;;;;;5085920;28;20448;-78
2022/01/27 13:28:08;;;;;;;16.27;9.47;;;3.90;99.90;;;;;;5114361;27;20238;-77
2022/01/27 13:31:01;;;;;;;15.70;9.00;;;3.80;99.90;;;;;;5103769;27;20226;-78
2022/01/27 13:33:50;;;;;;;16.70;9.83;;;3.70;99.90;;;;;;5102183;27;20212;-77
2022/01/27 13:36:39;;;;;;;13.90;8.80;;;3.70;99.90;;;;;;5089863;28;20428;-77
2022/01/27 13:39:47;;;;;;;17.73;9.90;;;3.70;99.90;;;;;;5105808;27;20227;-79
2022/01/27 13:42:37;;;;;;;13.30;8.67;;;3.90;99.90;;;;;;5114734;27;20346;-77
2022/01/27 13:45:26;;;;;;;15.63;10.07;;;3.70;99.90;;;;;;5099445;27;20229;-78
2022/01/27 13:48:23;;;;;;;13.03;8.40;;;3.70;99.90;;;;;;5085048;28;20270;-79
2022/01/27 13:51:20;;;;;;;13.47;8.20;;;3.80;99.90;;;;;;5086862;28;20217;-79
2022/01/27 13:54:09;;;;;;;15.73;9.57;;;3.70;99.90;;;;;;5088971;27;20229;-78
2022/01/27 13:57:05;;;;;;;13.63;8.80;;;3.60;99.90;;;;;;5100395;28;20219;-78
2022/01/27 13:59:58;;;;;;;12.93;8.17;;;3.50;99.90;;;;;;5104355;27;20653;-78
2022/01/27 14:02:48;;;;;;;15.37;9.20;;;3.60;99.90;;;;;;5085022;28;20225;-78
2022/01/27 14:05:38;;;;;;;17.67;9.20;;;3.50;99.90;;;;;;5089146;28;20235;-78
2022/01/27 14:08:36;;;;;;;16.13;9.47;;;3.40;99.90;;;;;;5089503;28;20270;-79
2022/01/27 14:11:34;;;;;;;16.37;9.73;;;3.50;99.90;;;;;;5078930;28;20490;-79
2022/01/27 14:14:45;;;;;;;14.77;8.43;;;3.50;99.90;;;;;;5088149;28;20231;-78
2022/01/27 14:17:34;;;;;;;17.73;10.20;;;3.50;99.90;;;;;;5100364;27;20305;-80
2022/01/27 14:20:23;;;;;;;17.17;10.17;;;3.40;99.90;;;;;;5090226;27;20687;-78
2022/01/27 14:23:16;;;;;;;17.53;10.07;;;3.50;99.90;;;;;;5088454;28;20215;-78
2022/01/27 14:26:07;;;;;;;17.07;9.63;;;3.30;99.90;;;;;;5089517;28;20239;-77
2022/01/27 14:28:57;;;;;;;18.57;10.07;;;3.40;99.90;;;;;;5090653;28;20217;-78
2022/01/27 14:31:48;;;;;;;17.70;11.23;;;3.50;99.90;;;;;;5101819;27;20231;-78
2022/01/27 14:34:38;;;;;;;21.23;13.07;;;3.50;99.90;;;;;;5101138;28;20278;-79
2022/01/27 14:37:27;;;;;;;19.23;11.40;;;3.50;99.90;;;;;;5084807;28;20219;-79
2022/01/27 14:40:19;;;;;;;17.53;10.87;;;3.30;99.90;;;;;;5098710;28;20227;-78
2022/01/27 14:43:08;;;;;;;18.23;11.50;;;3.30;99.90;;;;;;5081909;28;20219;-79
2022/01/27 14:45:59;;;;;;;17.47;10.90;;;3.10;99.90;;;;;;5099190;27;20275;-80
2022/01/27 14:48:58;;;;;;;20.93;11.47;;;3.10;99.90;;;;;;5086421;28;20227;-79
2022/01/27 14:51:47;;;;;;;16.17;8.53;;;3.00;99.90;;;;;;5099253;27;20230;-79
2022/01/27 14:54:36;;;;;;;20.10;11.80;;;3.00;99.90;;;;;;5085458;28;20249;-79
2022/01/27 14:57:31;;;;;;;18.00;11.43;;;3.00;99.90;;;;;;5087663;28;20219;-79
2022/01/27 15:00:22;;;;;;;19.83;12.10;;;3.10;99.90;;;;;;5085141;27;20312;-79
2022/01/27 15:03:11;;;;;;;18.80;11.57;;;3.00;99.90;;;;;;5084079;28;20279;-79
2022/01/27 15:06:00;;;;;;;18.13;11.23;;;3.00;99.90;;;;;;5084650;28;20222;-79
2022/01/27 15:08:51;;;;;;;21.17;13.00;;;2.90;99.90;;;;;;5082499;28;20243;-78